Time;durP1;ratioP1;P1;durP2;ratioP2;P2;SDS_P1;SDS_P2;PMS_P1;PMS_P2;Temp;Humidity;BMP_temperature;BMP_pressure;BME280_temperature;BME280_humidity;BME280_pressure;Samples;Min_cycle;Max_cycle;Signal;HPM_P1;HPM_P2
2021/06/10 00:01:36;;;;;;;9.70;6.47;;;;;;;13.95;100.00;98229.59;5035994;28;20508;-78
2021/06/10 00:04:03;;;;;;;14.73;7.70;;;;;;;13.91;100.00;98230.56;5034922;28;20119;-78
2021/06/10 00:06:30;;;;;;;9.90;7.53;;;;;;;13.77;100.00;98221.75;5034977;28;20057;-76
2021/06/10 00:08:56;;;;;;;11.98;7.75;;;;;;;13.73;100.00;98230.53;5035569;28;20057;-77
2021/06/10 00:11:23;;;;;;;12.15;7.40;;;;;;;13.71;100.00;98224.63;5035450;28;20054;-79
2021/06/10 00:13:50;;;;;;;13.07;8.25;;;;;;;13.59;100.00;98232.66;5039372;28;20668;-76
2021/06/10 00:16:16;;;;;;;11.40;7.75;;;;;;;13.45;100.00;98236.63;5041095;28;20064;-78
2021/06/10 00:18:43;;;;;;;10.65;7.72;;;;;;;13.50;100.00;98239.19;5044525;28;20060;-77
2021/06/10 00:21:10;;;;;;;17.88;8.80;;;;;;;13.41;100.00;98241.91;5044948;28;20064;-76
2021/06/10 00:23:36;;;;;;;14.10;8.02;;;;;;;13.36;100.00;98246.69;5046559;28;20061;-77
2021/06/10 00:26:03;;;;;;;13.10;9.43;;;;;;;13.29;100.00;98244.44;5042890;28;20107;-77
2021/06/10 00:28:29;;;;;;;11.73;9.18;;;;;;;13.31;100.00;98244.94;5041973;28;20057;-79
2021/06/10 00:30:56;;;;;;;13.57;8.73;;;;;;;13.45;100.00;98239.34;5042883;28;20054;-77
2021/06/10 00:33:22;;;;;;;19.08;8.23;;;;;;;13.46;100.00;98241.75;5042715;28;20473;-79
2021/06/10 00:35:50;;;;;;;10.93;8.70;;;;;;;13.33;100.00;98231.00;5043196;28;20050;-78
2021/06/10 00:38:17;;;;;;;14.00;8.07;;;;;;;13.40;100.00;98234.84;5042057;28;20054;-78
2021/06/10 00:40:43;;;;;;;14.13;9.25;;;;;;;13.25;100.00;98229.88;5040879;28;20060;-78
2021/06/10 00:43:10;;;;;;;14.90;9.45;;;;;;;13.25;100.00;98232.59;5007387;28;20064;-78
2021/06/10 00:45:36;;;;;;;13.80;9.20;;;;;;;13.22;100.00;98237.84;5038649;28;20057;-76
2021/06/10 00:48:03;;;;;;;27.77;9.07;;;;;;;13.29;100.00;98236.25;5038641;28;20361;-77
2021/06/10 00:50:43;;;;;;;13.43;9.45;;;;;;;13.10;100.00;98225.69;5037975;28;20046;-80
2021/06/10 00:53:21;;;;;;;18.02;9.50;;;;;;;13.17;100.00;98235.28;5039290;28;20057;-78
2021/06/10 00:55:51;;;;;;;15.15;9.90;;;;;;;13.24;100.00;98238.38;5039530;28;20053;-77
2021/06/10 00:58:19;;;;;;;15.45;10.05;;;;;;;13.26;100.00;98230.69;5039395;28;20432;-78
2021/06/10 01:00:46;;;;;;;16.15;8.75;;;;;;;13.37;100.00;98240.16;5039487;28;20096;-79
2021/06/10 01:03:13;;;;;;;13.68;8.73;;;;;;;13.39;100.00;98232.47;5039570;28;20053;-77
2021/06/10 01:05:41;;;;;;;16.95;7.97;;;;;;;13.52;100.00;98223.34;5043290;28;20054;-77
2021/06/10 01:08:23;;;;;;;9.50;7.88;;;;;;;13.61;100.00;98230.41;5040552;28;20054;-77
2021/06/10 01:11:32;;;;;;;13.73;7.88;;;;;;;13.73;100.00;98233.28;5043733;28;20076;-77
2021/06/10 01:14:18;;;;;;;12.43;8.25;;;;;;;13.77;100.00;98227.19;5028595;28;20080;-77
2021/06/10 01:16:47;;;;;;;13.75;7.93;;;;;;;13.82;100.00;98227.84;5008523;28;20061;-78
2021/06/10 01:19:42;;;;;;;9.13;7.15;;;;;;;13.83;100.00;98226.72;5024112;28;20057;-77
2021/06/10 01:22:19;;;;;;;12.10;7.45;;;;;;;13.83;100.00;98215.84;5039875;28;20040;-78
2021/06/10 01:24:57;;;;;;;12.65;7.45;;;;;;;13.82;100.00;98225.13;5047971;28;20079;-76
2021/06/10 01:27:33;;;;;;;11.02;6.90;;;;;;;13.84;100.00;98217.41;5068640;28;20079;-76
2021/06/10 01:30:12;;;;;;;16.20;7.72;;;;;;;13.96;100.00;98222.22;5067879;28;20068;-75
2021/06/10 01:32:44;;;;;;;15.25;8.77;;;;;;;14.00;100.00;98234.06;5069137;28;20056;-77
2021/06/10 01:35:24;;;;;;;11.52;7.85;;;;;;;13.99;100.00;98221.59;5058635;28;20067;-76
2021/06/10 01:37:53;;;;;;;14.20;7.80;;;;;;;14.10;100.00;98234.53;5039126;28;20060;-78
2021/06/10 01:40:26;;;;;;;12.70;7.20;;;;;;;14.14;100.00;98227.28;5047508;28;20048;-78
2021/06/10 01:42:55;;;;;;;16.50;8.15;;;;;;;13.84;100.00;98225.59;5040124;28;20049;-77
2021/06/10 01:45:23;;;;;;;10.35;7.32;;;;;;;13.82;100.00;98227.84;5058447;28;20084;-77
2021/06/10 01:47:51;;;;;;;13.38;8.27;;;;;;;13.94;100.00;98232.59;5059137;28;20079;-77
2021/06/10 01:50:22;;;;;;;14.43;7.90;;;;;;;14.07;100.00;98226.19;5024964;28;20053;-78
2021/06/10 01:52:51;;;;;;;12.23;7.72;;;;;;;14.17;100.00;98234.81;5060322;28;20135;-79
2021/06/10 01:55:25;;;;;;;18.92;9.45;;;;;;;14.26;100.00;98235.63;5059281;28;20095;-78
2021/06/10 01:57:53;;;;;;;20.13;9.93;;;;;;;14.35;100.00;98227.44;5058584;28;20079;-78
2021/06/10 02:00:21;;;;;;;15.20;8.35;;;;;;;14.42;100.00;98216.88;5058627;28;20052;-77
2021/06/10 02:02:51;;;;;;;12.55;8.95;;;;;;;14.46;100.00;98220.53;5058674;28;20056;-77
2021/06/10 02:05:20;;;;;;;20.05;11.00;;;;;;;14.49;100.00;98208.97;5062477;28;20049;-76
2021/06/10 02:07:47;;;;;;;16.25;11.73;;;;;;;14.60;100.00;98209.44;5075406;28;20119;-77
2021/06/10 02:10:19;;;;;;;16.63;12.80;;;;;;;14.62;100.00;98224.31;5059255;28;20064;-77
2021/06/10 02:12:46;;;;;;;18.90;12.10;;;;;;;14.67;100.00;98213.25;5056589;28;20052;-77
2021/06/10 02:15:13;;;;;;;19.92;13.38;;;;;;;14.71;100.00;98214.19;5056931;28;20080;-78
2021/06/10 02:17:41;;;;;;;23.25;12.85;;;;;;;14.73;100.00;98214.66;5058130;28;20424;-79
2021/06/10 02:20:09;;;;;;;13.48;11.38;;;;;;;14.81;100.00;98213.81;5039966;28;20080;-80
2021/06/10 02:22:36;;;;;;;16.98;12.57;;;;;;;14.86;100.00;98213.66;5057436;28;20095;-79
2021/06/10 02:25:03;;;;;;;21.17;13.10;;;;;;;14.81;100.00;98213.81;5057693;28;20804;-79
2021/06/10 02:27:29;;;;;;;13.75;12.20;;;;;;;14.85;100.00;98212.03;5039836;28;20061;-78
2021/06/10 02:29:56;;;;;;;17.05;11.15;;;;;;;14.91;100.00;98199.84;5057334;28;20053;-78
2021/06/10 02:32:23;;;;;;;15.10;11.93;;;;;;;14.92;100.00;98211.50;5057990;28;20057;-79
2021/06/10 02:34:50;;;;;;;15.93;11.90;;;;;;;14.93;100.00;98202.22;5039016;28;20053;-78
2021/06/10 02:37:21;;;;;;;19.35;12.80;;;;;;;14.91;100.00;98202.56;5039945;28;20134;-79
2021/06/10 02:39:51;;;;;;;15.60;11.25;;;;;;;14.97;100.00;98217.59;5057283;28;20504;-78
2021/06/10 02:42:18;;;;;;;19.60;12.38;;;;;;;14.88;100.00;98210.59;5056975;28;20052;-78
2021/06/10 02:44:49;;;;;;;18.60;12.32;;;;;;;14.85;100.00;98212.03;5055746;28;20057;-76
2021/06/10 02:47:17;;;;;;;15.55;11.57;;;;;;;14.90;100.00;98213.78;5056490;28;20570;-79
2021/06/10 02:49:47;;;;;;;18.25;11.65;;;;;;;14.92;100.00;98209.59;5038716;28;20053;-77
2021/06/10 02:52:18;;;;;;;13.88;10.93;;;;;;;15.00;100.00;98199.75;5057482;28;20123;-79
2021/06/10 02:54:47;;;;;;;14.10;10.20;;;;;;;15.07;100.00;98204.72;5056609;28;20053;-78
2021/06/10 02:57:15;;;;;;;15.27;10.38;;;;;;;15.02;100.00;98202.94;5056900;28;20056;-78
2021/06/10 02:59:43;;;;;;;25.20;11.25;;;;;;;15.01;100.00;98206.03;5056128;28;20628;-78
2021/06/10 03:02:12;;;;;;;13.35;10.55;;;;;;;15.04;100.00;98206.19;5070957;28;20075;-75
2021/06/10 03:04:44;;;;;;;20.70;10.75;;;;;;;14.97;100.00;98211.31;5060666;28;20492;-77
2021/06/10 03:07:16;;;;;;;17.15;10.80;;;;;;;14.84;100.00;98210.44;5055503;28;20052;-79
2021/06/10 03:09:44;;;;;;;13.98;11.23;;;;;;;14.78;100.00;98206.31;5055725;28;20057;-79
2021/06/10 03:12:15;;;;;;;16.02;11.23;;;;;;;14.93;100.00;98203.03;5056443;28;20053;-78
2021/06/10 03:14:43;;;;;;;17.55;10.77;;;;;;;15.04;100.00;98206.19;5055488;28;20107;-79
2021/06/10 03:17:12;;;;;;;16.35;10.68;;;;;;;15.12;100.00;98199.88;5055680;28;20052;-78
2021/06/10 03:19:41;;;;;;;15.68;10.38;;;;;;;15.16;100.00;98194.53;5038311;28;20053;-78
2021/06/10 03:22:08;;;;;;;20.08;10.70;;;;;;;15.22;100.00;98201.41;5056184;28;20103;-78
2021/06/10 03:24:35;;;;;;;16.17;10.50;;;;;;;15.17;100.00;98188.78;5038498;28;20055;-77
2021/06/10 03:27:04;;;;;;;16.35;10.88;;;;;;;15.13;100.00;98187.81;5056920;28;20049;-80
2021/06/10 03:29:31;;;;;;;17.10;10.63;;;;;;;15.10;100.00;98193.94;5037857;28;20454;-77
2021/06/10 03:31:58;;;;;;;14.15;10.90;;;;;;;15.06;100.00;98192.19;5056165;28;20115;-78
2021/06/10 03:34:27;;;;;;;15.43;11.73;;;;;;;15.09;100.00;98191.53;5039292;28;20056;-77
2021/06/10 03:36:55;;;;;;;16.70;11.10;;;;;;;15.13;100.00;98190.53;5057564;22;20053;-79
2021/06/10 03:39:23;;;;;;;16.75;10.80;;;;;;;15.13;100.00;98185.09;5022445;28;20300;-79
2021/06/10 03:41:52;;;;;;;20.55;10.88;;;;;;;15.29;100.00;98191.56;5018930;28;20057;-78
2021/06/10 03:44:19;;;;;;;18.67;12.27;;;;;;;15.38;100.00;98196.97;5019867;28;20052;-78
2021/06/10 03:46:46;;;;;;;18.50;11.93;;;;;;;15.29;100.00;98205.22;5038454;28;20425;-78
2021/06/10 03:49:13;;;;;;;18.50;11.93;;;;;;;15.21;100.00;98202.53;5037145;28;20137;-78
2021/06/10 03:51:39;;;;;;;19.67;11.38;;;;;;;15.34;100.00;98204.19;5020830;28;20076;-78
2021/06/10 03:54:07;;;;;;;16.88;10.93;;;;;;;15.45;100.00;98208.16;5037398;28;20050;-78
2021/06/10 03:56:35;;;;;;;18.70;10.82;;;;;;;15.51;100.00;98215.03;5036702;28;20448;-79
2021/06/10 03:59:03;;;;;;;21.40;11.23;;;;;;;15.55;100.00;98214.03;5035828;28;20057;-78
2021/06/10 04:01:30;;;;;;;15.48;10.75;;;;;;;15.63;100.00;98217.84;5018776;28;20053;-78
2021/06/10 04:04:00;;;;;;;17.73;10.80;;;;;;;15.63;100.00;98225.22;5035799;28;20049;-78
2021/06/10 04:06:34;;;;;;;17.48;11.15;;;;;;;15.55;100.00;98229.59;5037360;28;20049;-78
2021/06/10 04:09:05;;;;;;;17.90;11.00;;;;;;;15.47;100.00;98233.19;5036217;28;20076;-78
2021/06/10 04:11:32;;;;;;;19.85;12.18;;;;;;;15.28;100.00;98225.41;5036674;28;20203;-79
2021/06/10 04:13:59;;;;;;;17.85;12.43;;;;;;;15.27;100.00;98236.69;5034555;28;20566;-78
2021/06/10 04:16:26;;;;;;;19.73;12.73;;;;;;;15.30;100.00;98246.94;5035566;28;20061;-79
2021/06/10 04:18:53;;;;;;;19.75;12.57;;;;;;;15.26;100.00;98244.06;5014149;28;20049;-78
2021/06/10 04:21:20;;;;;;;21.92;14.20;;;;;;;15.20;100.00;98248.09;5030769;28;20108;-78
2021/06/10 04:23:50;;;;;;;23.08;13.85;;;;;;;15.22;100.00;98237.69;5012790;28;20567;-78
2021/06/10 04:26:18;;;;;;;16.75;13.48;;;;;;;15.30;100.00;98233.28;5031076;28;20061;-78
2021/06/10 04:28:45;;;;;;;23.20;15.43;;;;;;;15.38;100.00;98238.66;5013506;28;20045;-78
2021/06/10 04:31:16;;;;;;;26.73;15.88;;;;;;;15.38;100.00;98240.63;5031103;28;20057;-78
2021/06/10 04:33:46;;;;;;;21.15;16.27;;;;;;;15.42;100.00;98236.09;5013045;28;20057;-78
2021/06/10 04:36:13;;;;;;;22.10;16.02;;;;;;;15.48;100.00;98237.53;5003664;28;20049;-79
2021/06/10 04:38:40;;;;;;;22.38;16.13;;;;;;;15.53;100.00;98238.13;5018962;28;20049;-79
2021/06/10 04:41:08;;;;;;;21.10;16.88;;;;;;;15.63;100.00;98231.47;5018446;28;20080;-78
2021/06/10 04:43:35;;;;;;;23.60;16.98;;;;;;;15.71;100.00;98216.16;5012685;28;20553;-78
2021/06/10 04:46:02;;;;;;;27.35;16.73;;;;;;;15.71;100.00;98214.25;5012170;28;20057;-78
2021/06/10 04:48:31;;;;;;;29.73;16.67;;;;;;;15.81;100.00;98224.75;5030192;28;20053;-78
2021/06/10 04:50:58;;;;;;;32.13;17.80;;;;;;;15.84;100.00;98223.28;5030106;28;20053;-79
2021/06/10 04:53:27;;;;;;;34.20;18.83;;;;;;;15.76;100.00;98216.75;5012321;28;20103;-78
2021/06/10 04:55:56;;;;;;;46.15;21.00;;;;;;;15.81;100.00;98230.22;5012645;28;20058;-79
2021/06/10 04:58:22;;;;;;;41.72;20.92;;;;;;;15.76;100.00;98224.16;5011905;28;20177;-79
2021/06/10 05:00:50;;;;;;;38.22;19.98;;;;;;;15.77;100.00;98225.75;5014441;28;20050;-79
2021/06/10 05:03:25;;;;;;;34.58;19.55;;;;;;;15.71;100.00;98227.88;5013805;28;20492;-79
2021/06/10 05:05:51;;;;;;;29.58;20.15;;;;;;;15.73;100.00;98224.81;5007009;28;20112;-79
2021/06/10 05:08:18;;;;;;;31.10;20.00;;;;;;;15.66;100.00;98221.81;5020202;28;20667;-79
2021/06/10 05:10:45;;;;;;;35.13;19.85;;;;;;;15.64;100.00;98216.69;5014101;28;20046;-79
2021/06/10 05:13:11;;;;;;;30.65;20.30;;;;;;;15.59;100.00;98211.44;5032549;28;20057;-79
2021/06/10 05:15:38;;;;;;;31.90;20.17;;;;;;;15.55;100.00;98200.41;5013352;28;20506;-80
2021/06/10 05:18:04;;;;;;;29.52;19.65;;;;;;;15.57;100.00;98202.78;5031714;28;20058;-79
2021/06/10 05:20:31;;;;;;;35.33;20.55;;;;;;;15.60;100.00;98202.13;5039339;28;20053;-80
2021/06/10 05:22:58;;;;;;;29.50;20.58;;;;;;;15.58;100.00;98207.13;5016671;28;20132;-80
2021/06/10 05:25:25;;;;;;;30.83;20.95;;;;;;;15.65;100.00;98212.84;5002385;28;20053;-81
2021/06/10 05:27:51;;;;;;;26.65;20.23;;;;;;;15.65;100.00;98203.84;5018601;28;20111;-80
2021/06/10 05:30:19;;;;;;;32.42;21.20;;;;;;;15.74;100.00;98210.84;5001982;28;20092;-80
2021/06/10 05:32:46;;;;;;;33.60;21.77;;;;;;;15.78;100.00;98209.03;5015555;28;20103;-80
2021/06/10 05:35:13;;;;;;;32.38;22.88;;;;;;;15.88;100.00;98216.00;5034212;28;20060;-80
2021/06/10 05:37:39;;;;;;;34.20;23.83;;;;;;;15.96;100.00;98220.59;5015616;28;20057;-80
2021/06/10 05:40:08;;;;;;;32.08;22.95;;;;;;;16.01;100.00;98213.00;5033184;28;20216;-79
2021/06/10 05:42:35;;;;;;;30.63;22.30;;;;;;;16.09;100.00;98206.66;4999352;28;20053;-79
2021/06/10 05:45:03;;;;;;;40.08;23.45;;;;;;;16.23;100.00;98211.03;5033342;28;20057;-79
2021/06/10 05:47:30;;;;;;;37.60;24.17;;;;;;;16.37;100.00;98212.31;5033690;28;20092;-79
2021/06/10 05:49:57;;;;;;;35.95;24.58;;;;;;;16.55;100.00;98212.94;5016267;28;20107;-78
2021/06/10 05:52:24;;;;;;;36.78;26.60;;;;;;;16.69;100.00;98200.56;5033828;28;20384;-80
2021/06/10 05:54:50;;;;;;;37.00;29.00;;;;;;;16.88;100.00;98207.41;5033158;28;20045;-79
2021/06/10 05:57:17;;;;;;;43.30;31.13;;;;;;;17.05;100.00;98218.09;5016430;28;20049;-79
2021/06/10 05:59:47;;;;;;;38.70;27.77;;;;;;;17.23;100.00;98206.56;5017665;28;20058;-79
2021/06/10 06:02:19;;;;;;;37.63;26.08;;;;;;;17.42;100.00;98214.19;5034806;28;20053;-79
2021/06/10 06:04:46;;;;;;;36.38;24.85;;;;;;;17.59;100.00;98210.41;5044793;28;20057;-79
2021/06/10 06:07:13;;;;;;;28.33;22.17;;;;;;;17.77;100.00;98208.97;5015772;28;20057;-79
2021/06/10 06:09:39;;;;;;;29.63;22.08;;;;;;;17.87;100.00;98192.84;5033288;28;20041;-79
2021/06/10 06:12:11;;;;;;;30.13;22.80;;;;;;;18.01;100.00;98198.72;5000837;28;20064;-79
2021/06/10 06:14:41;;;;;;;32.05;24.05;;;;;;;18.23;100.00;98197.38;5022841;28;20136;-80
2021/06/10 06:17:09;;;;;;;25.85;19.70;;;;;;;18.38;100.00;98196.59;5020531;28;20058;-79
2021/06/10 06:19:36;;;;;;;25.10;19.10;;;;;;;18.49;100.00;98188.69;5002937;28;20050;-79
2021/06/10 06:22:04;;;;;;;30.15;20.13;;;;;;;18.66;100.00;98183.63;5036990;28;20105;-80
2021/06/10 06:24:32;;;;;;;23.48;19.33;;;;;;;18.72;100.00;98181.44;5035995;28;20049;-79
2021/06/10 06:26:59;;;;;;;25.20;17.65;;;;;;;18.83;100.00;98176.19;5016941;28;20049;-78
2021/06/10 06:29:27;;;;;;;20.20;16.58;;;;;;;18.89;100.00;98174.78;5016543;28;20055;-78
2021/06/10 06:31:54;;;;;;;19.70;17.48;;;;;;;19.00;100.00;98176.63;5017043;28;20057;-79
2021/06/10 06:34:21;;;;;;;21.08;17.48;;;;;;;19.09;100.00;98173.69;5033630;28;20083;-78
2021/06/10 06:36:48;;;;;;;24.13;18.33;;;;;;;19.19;100.00;98178.63;5014761;28;20452;-79
2021/06/10 06:39:15;;;;;;;21.70;16.80;;;;;;;19.27;100.00;98175.69;5015857;28;20428;-78
2021/06/10 06:41:42;;;;;;;21.55;15.82;;;;;;;19.39;100.00;98182.22;5015955;28;20057;-79
2021/06/10 06:44:09;;;;;;;27.33;15.57;;;;;;;19.46;100.00;98187.91;5014818;28;20517;-79
2021/06/10 06:46:35;;;;;;;21.48;16.13;;;;;;;19.55;100.00;98183.78;5016287;28;20050;-79
2021/06/10 06:49:03;;;;;;;19.77;16.40;;;;;;;19.62;100.00;98185.88;5015050;28;20041;-79
2021/06/10 06:51:33;;;;;;;22.63;15.25;;;;;;;19.67;100.00;98182.84;5016640;28;20088;-79
2021/06/10 06:54:02;;;;;;;19.52;15.85;;;;;;;19.73;100.00;98187.69;5014562;28;20053;-79
2021/06/10 06:56:30;;;;;;;17.60;14.88;;;;;;;19.83;100.00;98186.31;5033069;28;20436;-78
2021/06/10 06:58:57;;;;;;;15.52;12.20;;;;;;;19.97;100.00;98185.81;5033256;28;20057;-79
2021/06/10 07:01:24;;;;;;;17.00;12.85;;;;;;;20.11;100.00;98181.38;5033751;28;20119;-79
2021/06/10 07:03:51;;;;;;;17.38;13.68;;;;;;;20.13;100.00;98181.03;5034064;28;20053;-78
2021/06/10 07:06:17;;;;;;;18.58;12.80;;;;;;;20.18;100.00;98187.00;5035741;28;20497;-79
2021/06/10 07:08:46;;;;;;;17.17;13.05;;;;;;;20.35;100.00;98191.28;5035413;28;20057;-79
2021/06/10 07:11:32;;;;;;;18.53;13.60;;;;;;;20.52;100.00;98199.06;5034297;28;20057;-79
2021/06/10 07:13:58;;;;;;;17.35;13.23;;;;;;;20.69;100.00;98187.56;4999500;28;20337;-79
2021/06/10 07:16:25;;;;;;;15.63;11.02;;;;;;;20.70;100.00;98193.88;5016290;28;20456;-79
2021/06/10 07:18:52;;;;;;;12.95;9.88;;;;;;;20.74;100.00;98197.47;5033948;28;20049;-79
2021/06/10 07:21:18;;;;;;;13.60;10.85;;;;;;;20.73;100.00;98193.13;5016037;28;20483;-79
2021/06/10 07:23:45;;;;;;;16.88;12.15;;;;;;;20.93;100.00;98189.94;4999670;28;20061;-79
2021/06/10 07:26:12;;;;;;;13.43;11.48;;;;;;;21.05;100.00;98194.44;5019681;28;20489;-78
2021/06/10 07:28:38;;;;;;;15.27;12.40;;;;;;;21.05;100.00;98203.50;5022180;28;20041;-77
2021/06/10 07:31:05;;;;;;;18.40;12.30;;;;;;;20.92;100.00;98195.81;5037300;28;20060;-77
2021/06/10 07:33:31;;;;;;;14.40;11.40;;;;;;;21.15;100.00;98195.81;5006082;28;20053;-79
2021/06/10 07:36:00;;;;;;;15.55;11.43;;;;;;;21.37;100.00;98204.00;5034368;28;20076;-80
2021/06/10 07:38:28;;;;;;;11.43;10.10;;;;;;;21.48;100.00;98195.88;5033319;28;20144;-78
2021/06/10 07:40:54;;;;;;;12.38;9.82;;;;;;;21.72;100.00;98195.44;5033269;28;20211;-78
2021/06/10 07:43:21;;;;;;;14.48;10.32;;;;;;;21.85;100.00;98198.75;5034515;28;20103;-79
2021/06/10 07:45:47;;;;;;;17.92;10.65;;;;;;;22.13;100.00;98197.16;5033977;28;20468;-78
2021/06/10 07:48:14;;;;;;;12.60;10.40;;;;;;;22.60;100.00;98198.44;5015702;28;20049;-78
2021/06/10 07:50:44;;;;;;;16.13;10.00;;;;;;;23.03;100.00;98188.56;5014127;28;20097;-78
2021/06/10 07:53:10;;;;;;;13.02;10.23;;;;;;;23.28;100.00;98190.31;5032721;28;20468;-78
2021/06/10 07:55:40;;;;;;;11.80;9.23;;;;;;;23.24;100.00;98191.47;5014148;28;20053;-78
2021/06/10 07:58:07;;;;;;;12.00;9.45;;;;;;;22.84;100.00;98193.16;5015155;28;20057;-77
2021/06/10 08:00:34;;;;;;;12.93;9.95;;;;;;;22.80;100.00;98197.06;5020035;28;20046;-77
2021/06/10 08:03:01;;;;;;;14.07;9.70;;;;;;;22.84;100.00;98192.38;5014015;28;20497;-77
2021/06/10 08:05:29;;;;;;;12.20;9.60;;;;;;;22.99;100.00;98183.03;5014051;28;20055;-78
2021/06/10 08:07:56;;;;;;;11.95;8.50;;;;;;;23.23;100.00;98187.94;5039657;28;20121;-79
2021/06/10 08:10:23;;;;;;;11.85;8.88;;;;;;;23.16;100.00;98185.13;5019888;28;20104;-79
2021/06/10 08:12:50;;;;;;;10.85;7.45;;;;;;;23.18;100.00;98193.81;5013722;28;20046;-79
2021/06/10 08:15:18;;;;;;;9.45;8.45;;;;;;;22.80;100.00;98191.53;4996931;28;20053;-79
2021/06/10 08:17:46;;;;;;;11.80;9.48;;;;;;;22.79;100.00;98189.94;5017122;28;20064;-79
2021/06/10 08:20:15;;;;;;;10.90;9.18;;;;;;;22.98;100.00;98192.47;5054243;28;20426;-79
2021/06/10 08:22:44;;;;;;;13.18;9.90;;;;;;;23.18;100.00;98185.53;5033439;28;20076;-79
2021/06/10 08:25:11;;;;;;;12.25;10.15;;;;;;;23.33;100.00;98184.44;5025126;28;20064;-78
2021/06/10 08:27:38;;;;;;;17.02;11.30;;;;;;;23.50;100.00;98191.28;5030993;28;20058;-79
2021/06/10 08:30:06;;;;;;;13.95;10.77;;;;;;;23.65;100.00;98181.09;5015197;28;20049;-78
2021/06/10 08:32:33;;;;;;;11.57;9.95;;;;;;;23.92;100.00;98190.72;5032130;28;20050;-79
2021/06/10 08:35:00;;;;;;;12.15;10.15;;;;;;;23.88;100.00;98192.66;5014531;28;20049;-79
2021/06/10 08:37:27;;;;;;;15.98;12.38;;;;;;;24.18;100.00;98184.91;5033788;28;20376;-79
2021/06/10 08:39:53;;;;;;;16.77;13.38;;;;;;;23.90;100.00;98182.78;5015456;28;20058;-79
2021/06/10 08:42:20;;;;;;;17.60;12.77;;;;;;;24.03;100.00;98188.75;5035859;28;20053;-78
2021/06/10 08:44:49;;;;;;;15.23;12.80;;;;;;;24.01;100.00;98180.06;5033207;28;20049;-79
2021/06/10 08:47:20;;;;;;;15.63;12.25;;;;;;;24.48;100.00;98182.59;5015487;28;20053;-78
2021/06/10 08:49:49;;;;;;;17.67;13.45;;;;;;;24.13;100.00;98180.53;5014608;28;20054;-78
2021/06/10 08:52:15;;;;;;;19.45;13.23;;;;;;;24.04;100.00;98182.06;5016586;28;20060;-79
2021/06/10 08:54:42;;;;;;;14.48;11.70;;;;;;;24.55;100.00;98179.84;5016397;28;20062;-79
2021/06/10 08:57:08;;;;;;;12.52;10.60;;;;;;;24.57;100.00;98169.16;5014483;28;20061;-78
2021/06/10 08:59:37;;;;;;;15.13;10.57;;;;;;;24.72;100.00;98172.75;5035249;28;20080;-78
2021/06/10 09:02:07;;;;;;;18.17;11.18;;;;;;;24.41;100.00;98173.50;5018730;28;20057;-78
2021/06/10 09:04:34;;;;;;;14.88;12.48;;;;;;;24.37;100.00;98173.47;5035066;28;20111;-79
2021/06/10 09:07:03;;;;;;;13.68;11.50;;;;;;;24.55;100.00;98171.53;5018373;28;20046;-78
2021/06/10 09:09:39;;;;;;;14.18;10.40;;;;;;;24.49;100.00;98173.09;5001605;28;20052;-78
2021/06/10 09:12:08;;;;;;;16.23;10.13;;;;;;;24.11;100.00;98165.50;5038036;28;20057;-78
2021/06/10 09:14:57;;;;;;;16.30;11.45;;;;;;;24.49;100.00;98177.88;5015870;28;20505;-78
2021/06/10 09:17:34;;;;;;;19.02;12.45;;;;;;;24.64;100.00;98168.38;5034761;28;20520;-78
2021/06/10 09:20:24;;;;;;;18.92;11.63;;;;;;;25.46;100.00;98169.16;5036411;28;20057;-78
2021/06/10 09:23:06;;;;;;;15.95;11.75;;;;;;;25.90;100.00;98175.75;5017437;28;20057;-78
2021/06/10 09:25:33;;;;;;;19.48;11.15;;;;;;;25.51;100.00;98165.97;5032864;28;20057;-79
2021/06/10 09:28:02;;;;;;;15.15;11.18;;;;;;;24.98;100.00;98177.13;5017610;28;20057;-78
2021/06/10 09:30:52;;;;;;;15.30;10.50;;;;;;;24.34;100.00;98171.50;5016084;28;20408;-78
2021/06/10 09:33:22;;;;;;;16.52;10.45;;;;;;;24.40;100.00;98161.63;5033866;28;20068;-78
2021/06/10 09:35:48;;;;;;;13.75;9.80;;;;;;;25.23;100.00;98159.28;4999924;28;20061;-77
2021/06/10 09:38:21;;;;;;;13.07;10.40;;;;;;;26.04;100.00;98158.25;5017566;28;20053;-78
2021/06/10 09:40:51;;;;;;;13.43;10.75;;;;;;;26.81;100.00;98157.03;5018010;28;20418;-78
2021/06/10 09:43:19;;;;;;;13.57;11.23;;;;;;;27.56;100.00;98151.56;5018190;28;20049;-79
2021/06/10 09:45:51;;;;;;;17.35;12.85;;;;;;;27.23;100.00;98155.81;5038621;28;20088;-79
2021/06/10 09:48:30;;;;;;;16.52;12.75;;;;;;;26.60;100.00;98146.84;5038344;28;20056;-79
2021/06/10 09:50:59;;;;;;;14.80;11.27;;;;;;;26.65;100.00;98153.13;5020229;28;20049;-78
2021/06/10 09:53:28;;;;;;;14.27;11.25;;;;;;;25.55;100.00;98148.13;5018068;28;20420;-79
2021/06/10 09:56:03;;;;;;;14.25;11.32;;;;;;;25.07;100.00;98138.72;5036444;28;20076;-79
2021/06/10 09:58:42;;;;;;;12.45;10.68;;;;;;;24.38;100.00;98141.84;5018923;28;20128;-79
2021/06/10 10:01:16;;;;;;;14.50;11.32;;;;;;;24.04;100.00;98137.78;5034669;28;20068;-78
2021/06/10 10:03:46;;;;;;;15.80;10.80;;;;;;;24.87;100.00;98137.56;5018242;28;20497;-77
2021/06/10 10:06:26;;;;;;;11.73;9.35;;;;;;;25.65;100.00;98143.75;5015181;28;20050;-77
2021/06/10 10:08:55;;;;;;;10.13;7.70;;;;;;;27.36;100.00;98142.22;5031912;28;20100;-78
2021/06/10 10:11:24;;;;;;;10.90;7.75;;;;;;;28.20;89.20;98132.88;5031874;28;20053;-78
2021/06/10 10:13:54;;;;;;;12.70;8.43;;;;;;;28.48;87.44;98130.84;5031152;28;20053;-78
2021/06/10 10:16:29;;;;;;;10.85;7.43;;;;;;;28.27;84.79;98131.97;5032836;28;20669;-77
2021/06/10 10:18:59;;;;;;;9.52;7.30;;;;;;;28.85;83.67;98137.06;5033292;28;20144;-77
2021/06/10 10:21:28;;;;;;;11.82;7.50;;;;;;;27.54;93.10;98140.06;5015046;28;20050;-77
2021/06/10 10:24:01;;;;;;;9.10;7.60;;;;;;;26.89;100.00;98141.88;5030776;28;20076;-78
2021/06/10 10:26:32;;;;;;;7.43;6.60;;;;;;;27.64;87.96;98136.34;5031680;28;20475;-77
2021/06/10 10:29:01;;;;;;;8.18;6.13;;;;;;;28.67;72.25;98135.78;5013587;28;20492;-77
2021/06/10 10:31:32;;;;;;;11.50;7.68;;;;;;;29.43;66.04;98132.06;5032866;28;20305;-77
2021/06/10 10:33:59;;;;;;;13.30;7.47;;;;;;;29.81;65.07;98126.97;5026381;28;20053;-78
2021/06/10 10:36:32;;;;;;;8.20;6.53;;;;;;;29.98;62.47;98128.56;5032241;28;20065;-78
2021/06/10 10:39:06;;;;;;;7.75;6.22;;;;;;;29.18;68.43;98123.34;5031644;28;20508;-78
2021/06/10 10:41:50;;;;;;;9.02;6.32;;;;;;;29.99;63.86;98125.34;5031156;28;20049;-77
2021/06/10 10:44:27;;;;;;;9.55;6.85;;;;;;;28.69;65.43;98125.78;5019038;28;20107;-77
2021/06/10 10:46:59;;;;;;;9.45;6.32;;;;;;;29.71;57.71;98116.78;5031320;28;20464;-77
2021/06/10 10:49:31;;;;;;;7.78;6.10;;;;;;;30.57;51.98;98118.06;5017489;28;20064;-78
2021/06/10 10:52:13;;;;;;;7.60;6.57;;;;;;;31.04;52.66;98112.13;5033438;28;20057;-78
2021/06/10 10:54:43;;;;;;;8.63;6.05;;;;;;;30.23;54.03;98118.44;5032783;28;20140;-78
2021/06/10 10:57:36;;;;;;;6.72;5.72;;;;;;;31.14;46.78;98120.25;5033167;28;20056;-78
2021/06/10 11:00:09;;;;;;;8.18;5.55;;;;;;;32.68;43.23;98107.75;5031623;28;20555;-79
2021/06/10 11:02:42;;;;;;;6.10;5.13;;;;;;;31.68;45.57;98111.97;4999545;28;20567;-78
2021/06/10 11:05:09;;;;;;;7.00;6.03;;;;;;;31.55;46.70;98107.56;5032109;28;20104;-78
2021/06/10 11:07:36;;;;;;;9.05;5.80;;;;;;;32.20;45.44;98100.44;5031795;28;20057;-78
2021/06/10 11:10:06;;;;;;;8.10;5.40;;;;;;;32.67;47.08;98103.38;5013805;28;20341;-78
2021/06/10 11:12:50;;;;;;;6.30;5.32;;;;;;;32.72;43.85;98090.81;5032610;28;20306;-78
2021/06/10 11:15:29;;;;;;;7.65;5.18;;;;;;;33.63;42.53;98095.28;5013957;28;20449;-79
2021/06/10 11:18:02;;;;;;;11.30;5.47;;;;;;;34.01;40.55;98095.81;5029735;28;20072;-78
2021/06/10 11:20:37;;;;;;;10.43;5.20;;;;;;;30.87;48.92;98100.13;5014474;28;20061;-78
2021/06/10 11:23:13;;;;;;;7.10;5.50;;;;;;;29.74;60.39;98099.94;5014300;28;20102;-78
2021/06/10 11:25:41;;;;;;;6.82;5.20;;;;;;;31.38;56.80;98101.22;4999934;28;20428;-78